Kellogg, Minnesota
Current Conditions -  °F | °C
As of 10:33 AM on Friday 31 Oct 2014 (Local Time) from KONA Reporting Station
Scattered Clouds Scattered Clouds  
Wind Chill: 27°   Ceiling: Unl
Heat Index: 36°   Visibility: 10mi
Dew Point: 23°   Wind: 13mph
Humidity: 60%   Direction: 30°NNE
Pressure: 30.49"   Gusts: 22mph
Location:  44.31°N, 92°W
Report Text: KONA 311533Z AUTO 03011G19KT 10SM SCT037 02/M05 A3049 RMK AO2
Loading
Personal Weather Stations






























Interactive Weather Map New forecast layout! Learn more

10-Day Weather Forecast

Advertisements
Track Severe Weather on mobile